createdAt,value
2023-04-29T00:02:14.627Z,9.20
2023-04-29T00:04:43.125Z,11.07
2023-04-29T00:07:15.482Z,10.43
2023-04-29T00:09:44.270Z,12.20
2023-04-29T00:12:13.785Z,7.60
2023-04-29T00:14:43.341Z,11.33
2023-04-29T00:17:12.794Z,11.63
2023-04-29T00:19:41.443Z,10.30
2023-04-29T00:22:09.648Z,8.50
2023-04-29T00:24:37.869Z,9.50
2023-04-29T00:27:06.689Z,10.77
2023-04-29T00:29:36.858Z,8.80
2023-04-29T00:32:06.214Z,11.30
2023-04-29T00:34:34.630Z,9.57
2023-04-29T00:37:02.772Z,12.80
2023-04-29T00:39:30.872Z,10.93
2023-04-29T00:41:59.055Z,9.73
2023-04-29T00:44:27.249Z,9.20
2023-04-29T00:46:57.338Z,10.57
2023-04-29T00:49:25.656Z,10.80
2023-04-29T00:51:58.991Z,8.30
2023-04-29T00:54:27.372Z,8.43
2023-04-29T00:56:57.110Z,10.43
2023-04-29T00:59:32.132Z,8.17
2023-04-29T01:02:02.989Z,9.27
2023-04-29T01:04:31.351Z,9.43
2023-04-29T01:07:08.510Z,11.03
2023-04-29T01:10:00.347Z,11.00
2023-04-29T01:12:35.139Z,9.27
2023-04-29T01:15:07.976Z,9.93
2023-04-29T01:17:42.985Z,10.17
2023-04-29T01:20:13.327Z,9.20
2023-04-29T01:22:41.930Z,8.87
2023-04-29T01:25:13.082Z,9.43
2023-04-29T01:28:15.766Z,9.53
2023-04-29T01:30:54.963Z,9.83
2023-04-29T01:33:30.758Z,10.47
2023-04-29T01:36:09.566Z,9.43
2023-04-29T01:38:43.094Z,10.47
2023-04-29T01:41:19.229Z,9.80
2023-04-29T01:43:53.690Z,10.87
2023-04-29T01:46:24.957Z,11.90
2023-04-29T01:48:57.299Z,10.17
2023-04-29T01:51:25.676Z,9.27
2023-04-29T01:53:54.028Z,10.30
2023-04-29T01:56:26.288Z,8.97
2023-04-29T01:59:05.137Z,12.03
2023-04-29T02:01:39.925Z,7.80
2023-04-29T02:04:08.623Z,8.47
2023-04-29T02:06:39.500Z,7.53
2023-04-29T02:09:07.774Z,9.63
2023-04-29T02:11:38.556Z,10.83
2023-04-29T02:14:06.691Z,11.80
2023-04-29T02:16:35.033Z,8.53
2023-04-29T02:19:06.231Z,8.40
2023-04-29T02:21:35.256Z,8.43
2023-04-29T02:24:03.972Z,9.30
2023-04-29T02:26:32.684Z,8.07
2023-04-29T02:29:03.808Z,8.70
2023-04-29T02:31:32.785Z,9.50
2023-04-29T02:34:01.245Z,10.60
2023-04-29T02:36:29.545Z,8.93
2023-04-29T02:38:57.808Z,11.27
2023-04-29T02:41:26.220Z,7.57
2023-04-29T02:43:54.420Z,7.77
2023-04-29T02:46:24.126Z,8.00
2023-04-29T02:48:53.008Z,9.00
2023-04-29T02:51:21.170Z,9.20
2023-04-29T02:53:49.793Z,7.17
2023-04-29T02:56:18.178Z,7.87
2023-04-29T02:58:46.557Z,7.67
2023-04-29T03:01:14.738Z,7.17
2023-04-29T03:03:44.620Z,8.00
2023-04-29T03:06:13.119Z,6.90
2023-04-29T03:08:41.299Z,8.10
2023-04-29T03:11:09.471Z,8.57
2023-04-29T03:13:38.736Z,7.87
2023-04-29T03:16:08.954Z,8.90
2023-04-29T03:18:39.719Z,7.30
2023-04-29T03:21:10.353Z,7.73
2023-04-29T03:23:39.496Z,9.03
2023-04-29T03:26:09.137Z,8.67
2023-04-29T03:28:38.451Z,8.90
2023-04-29T03:31:06.838Z,7.77
2023-04-29T03:33:35.077Z,5.93
2023-04-29T03:36:03.337Z,6.33
2023-04-29T03:39:02.116Z,7.93
2023-04-29T03:41:31.076Z,8.13
2023-04-29T03:44:00.948Z,9.20
2023-04-29T03:46:30.842Z,8.40
2023-04-29T03:48:59.173Z,7.60
2023-04-29T03:51:28.161Z,6.27
2023-04-29T03:54:07.199Z,7.73
2023-04-29T03:56:37.747Z,6.87
2023-04-29T03:59:06.207Z,6.20
2023-04-29T04:01:34.701Z,5.07
2023-04-29T04:04:03.142Z,6.70
2023-04-29T04:06:34.038Z,6.20
2023-04-29T04:09:02.342Z,4.43
2023-04-29T04:11:36.552Z,5.40
2023-04-29T04:14:05.876Z,5.80
2023-04-29T04:16:34.143Z,8.60
2023-04-29T04:19:03.189Z,6.77
2023-04-29T04:21:33.455Z,6.80
2023-04-29T04:24:07.992Z,7.97
2023-04-29T04:26:38.054Z,6.03
2023-04-29T04:29:09.078Z,8.30
2023-04-29T04:31:58.985Z,6.77
2023-04-29T04:34:27.400Z,6.50
2023-04-29T04:36:58.248Z,5.33
2023-04-29T04:39:26.497Z,5.23
2023-04-29T04:42:00.120Z,5.10
2023-04-29T04:44:30.734Z,5.87
2023-04-29T04:47:11.637Z,5.60
2023-04-29T04:50:00.914Z,5.00
2023-04-29T04:52:39.014Z,5.80
2023-04-29T04:55:29.150Z,5.50
2023-04-29T04:57:59.672Z,5.70
2023-04-29T05:00:30.450Z,7.07
2023-04-29T05:03:00.934Z,7.70
2023-04-29T05:05:33.011Z,6.83
2023-04-29T05:08:02.824Z,7.87
2023-04-29T05:10:37.821Z,6.53
2023-04-29T05:13:08.939Z,9.20
2023-04-29T05:15:40.124Z,4.97
2023-04-29T05:18:09.889Z,8.20
2023-04-29T05:20:43.106Z,9.97
2023-04-29T05:23:11.625Z,7.07
2023-04-29T05:25:41.499Z,7.00
2023-04-29T05:28:11.036Z,8.30
2023-04-29T05:30:42.136Z,6.60
2023-04-29T05:33:11.290Z,5.47
2023-04-29T05:35:39.805Z,6.60
2023-04-29T05:38:08.219Z,6.93
2023-04-29T05:40:42.472Z,7.03
2023-04-29T05:43:33.102Z,6.93
2023-04-29T05:46:01.660Z,6.67
2023-04-29T05:48:30.479Z,7.67
2023-04-29T05:51:01.458Z,6.73
2023-04-29T05:53:29.838Z,8.10
2023-04-29T05:56:07.328Z,7.47
2023-04-29T05:58:54.949Z,6.53
2023-04-29T06:01:30.535Z,6.47
2023-04-29T06:04:08.690Z,8.67
2023-04-29T06:07:01.485Z,6.47
2023-04-29T06:09:51.902Z,6.63
2023-04-29T06:12:24.559Z,6.17
2023-04-29T06:14:57.344Z,9.53
2023-04-29T06:17:29.445Z,6.57
2023-04-29T06:19:57.846Z,9.00
2023-04-29T06:22:26.125Z,6.90
2023-04-29T06:24:56.098Z,5.73
2023-04-29T06:27:36.101Z,7.47
2023-04-29T06:30:09.507Z,8.10
2023-04-29T06:32:38.548Z,8.03
2023-04-29T06:35:08.432Z,9.10
2023-04-29T06:38:02.838Z,7.17
2023-04-29T06:40:31.101Z,8.97
2023-04-29T06:43:14.605Z,8.10
2023-04-29T06:46:03.018Z,7.50
2023-04-29T06:48:37.978Z,8.20
2023-04-29T06:51:06.335Z,7.80
2023-04-29T06:53:37.946Z,8.00
2023-04-29T06:56:09.259Z,6.47
2023-04-29T06:58:37.426Z,6.47
2023-04-29T07:01:08.727Z,9.07
2023-04-29T07:03:37.114Z,8.77
2023-04-29T07:06:06.226Z,9.10
2023-04-29T07:08:34.782Z,7.50
2023-04-29T07:11:03.121Z,8.10
2023-04-29T07:13:31.717Z,5.47
2023-04-29T07:16:00.369Z,7.90
2023-04-29T07:18:30.294Z,5.70
2023-04-29T07:21:02.705Z,6.30
2023-04-29T07:23:31.233Z,6.17
2023-04-29T07:25:59.416Z,7.30
2023-04-29T07:28:27.575Z,8.77
2023-04-29T07:30:55.845Z,7.70
2023-04-29T07:33:24.371Z,7.40
2023-04-29T07:35:54.009Z,6.50
2023-04-29T07:38:22.620Z,9.10
2023-04-29T07:40:50.893Z,8.83
2023-04-29T07:43:19.797Z,6.13
2023-04-29T07:45:51.245Z,5.80
2023-04-29T07:48:21.265Z,6.40
2023-04-29T07:50:49.539Z,7.77
2023-04-29T07:53:20.201Z,6.73
2023-04-29T07:55:48.799Z,6.97
2023-04-29T07:58:17.068Z,8.23
2023-04-29T08:00:47.337Z,7.37
2023-04-29T08:03:16.246Z,6.97
2023-04-29T08:05:45.352Z,6.50
2023-04-29T08:08:17.199Z,6.53
2023-04-29T08:10:49.265Z,6.47
2023-04-29T08:13:18.050Z,7.20
2023-04-29T08:15:46.796Z,6.50
2023-04-29T08:18:16.699Z,8.73
2023-04-29T08:20:44.840Z,8.47
2023-04-29T08:23:13.071Z,8.00
2023-04-29T08:25:43.464Z,6.33
2023-04-29T08:28:13.275Z,7.07
2023-04-29T08:30:42.068Z,6.83
2023-04-29T08:33:10.357Z,6.50
2023-04-29T08:35:38.871Z,7.13
2023-04-29T08:38:07.389Z,6.93
2023-04-29T08:40:36.755Z,6.77
2023-04-29T08:43:06.000Z,6.73
2023-04-29T08:45:36.462Z,8.80
2023-04-29T08:48:05.491Z,7.40
2023-04-29T08:50:38.178Z,6.83
2023-04-29T08:53:07.924Z,6.47
2023-04-29T08:55:38.169Z,6.90
2023-04-29T08:58:06.719Z,6.07
2023-04-29T09:00:37.035Z,6.87
2023-04-29T09:03:13.226Z,9.10
2023-04-29T09:05:42.960Z,6.83
2023-04-29T09:08:12.857Z,7.20
2023-04-29T09:10:43.202Z,7.47
2023-04-29T09:13:23.588Z,6.67
2023-04-29T09:15:56.175Z,8.80
2023-04-29T09:18:46.632Z,5.67
2023-04-29T09:21:20.277Z,7.93
2023-04-29T09:23:51.479Z,6.90
2023-04-29T09:26:20.226Z,7.17
2023-04-29T09:28:49.852Z,8.03
2023-04-29T09:31:30.381Z,7.97
2023-04-29T09:33:59.133Z,6.70
2023-04-29T09:36:37.906Z,8.27
2023-04-29T09:39:11.484Z,7.40
2023-04-29T09:41:43.261Z,6.00
2023-04-29T09:44:12.000Z,5.80
2023-04-29T09:46:43.181Z,6.00
2023-04-29T09:49:25.229Z,7.10
2023-04-29T09:51:58.648Z,7.27
2023-04-29T09:54:29.242Z,8.00
2023-04-29T09:56:59.356Z,7.63
2023-04-29T09:59:28.046Z,6.90
2023-04-29T10:01:58.988Z,6.13
2023-04-29T10:04:29.653Z,7.07
2023-04-29T10:06:58.060Z,7.83
2023-04-29T10:09:29.690Z,6.57
2023-04-29T10:11:58.033Z,6.37
2023-04-29T10:14:27.498Z,8.07
2023-04-29T10:17:12.370Z,7.57
2023-04-29T10:19:53.656Z,8.57
2023-04-29T10:22:30.683Z,6.57
2023-04-29T10:25:02.991Z,7.30
2023-04-29T10:27:35.244Z,7.53
2023-04-29T10:30:05.157Z,6.80
2023-04-29T10:32:49.669Z,7.40
2023-04-29T10:35:22.990Z,6.80
2023-04-29T10:37:51.565Z,6.13
2023-04-29T10:40:24.750Z,6.63
2023-04-29T10:42:54.291Z,5.43
2023-04-29T10:45:27.664Z,6.37
2023-04-29T10:48:25.613Z,6.33
2023-04-29T10:51:06.208Z,5.53
2023-04-29T10:53:36.401Z,6.23
2023-04-29T10:56:11.006Z,6.80
2023-04-29T10:58:44.801Z,5.70
2023-04-29T11:01:14.610Z,5.60
2023-04-29T11:04:01.498Z,7.03
2023-04-29T11:06:42.261Z,7.67
2023-04-29T11:09:16.216Z,5.40
2023-04-29T11:11:46.694Z,7.93
2023-04-29T11:14:16.333Z,5.30
2023-04-29T11:16:53.722Z,5.67
2023-04-29T11:19:26.722Z,6.73
2023-04-29T11:22:15.251Z,10.50
2023-04-29T11:24:55.134Z,7.03
2023-04-29T11:27:25.670Z,7.03
2023-04-29T11:29:58.664Z,7.50
2023-04-29T11:32:28.021Z,6.37
2023-04-29T11:35:08.176Z,9.20
2023-04-29T11:37:39.890Z,7.00
2023-04-29T11:40:09.320Z,7.30
2023-04-29T11:42:41.635Z,5.90
2023-04-29T11:45:10.499Z,5.50
2023-04-29T11:47:39.371Z,5.83
2023-04-29T11:50:10.742Z,5.10
2023-04-29T11:52:40.788Z,6.30
2023-04-29T11:55:10.549Z,5.90
2023-04-29T11:57:39.213Z,8.90
2023-04-29T12:00:12.869Z,6.17
2023-04-29T12:02:45.228Z,6.17
2023-04-29T12:05:19.322Z,6.30
2023-04-29T12:07:51.234Z,6.17
2023-04-29T12:10:19.541Z,6.33
2023-04-29T12:12:48.003Z,6.90
2023-04-29T12:15:16.748Z,5.90
2023-04-29T12:17:46.535Z,7.10
2023-04-29T12:20:16.490Z,5.20
2023-04-29T12:22:47.966Z,8.10
2023-04-29T12:25:18.285Z,5.60
2023-04-29T12:27:50.033Z,5.70
2023-04-29T12:30:18.304Z,5.73
2023-04-29T12:32:48.603Z,5.50
2023-04-29T12:35:18.876Z,7.30
2023-04-29T12:37:50.820Z,7.50
2023-04-29T12:40:20.698Z,6.47
2023-04-29T12:42:49.251Z,6.00
2023-04-29T12:45:32.183Z,5.80
2023-04-29T12:48:00.949Z,6.80
2023-04-29T12:50:34.454Z,7.20
2023-04-29T12:53:06.528Z,6.80
2023-04-29T12:55:36.359Z,6.50
2023-04-29T12:58:05.449Z,5.77
2023-04-29T13:00:35.080Z,4.53
2023-04-29T13:03:04.499Z,11.27
2023-04-29T13:05:34.245Z,8.57
2023-04-29T13:08:02.573Z,6.00
2023-04-29T13:10:31.122Z,7.50
2023-04-29T13:13:01.843Z,7.37
2023-04-29T13:15:30.205Z,6.83
2023-04-29T13:18:00.641Z,6.87
2023-04-29T13:20:29.000Z,6.27
2023-04-29T13:22:58.614Z,7.30
2023-04-29T13:25:29.156Z,8.23
2023-04-29T13:27:57.456Z,5.07
2023-04-29T13:30:25.876Z,5.17
2023-04-29T13:32:56.754Z,5.43
2023-04-29T13:35:27.985Z,6.43
2023-04-29T13:37:57.060Z,5.80
2023-04-29T13:40:28.282Z,5.90
2023-04-29T13:43:04.982Z,9.43
2023-04-29T13:45:39.037Z,6.73
2023-04-29T13:48:26.047Z,5.07
2023-04-29T13:51:37.332Z,6.23
2023-04-29T13:54:38.182Z,4.93
2023-04-29T14:02:21.659Z,6.50
2023-04-29T14:04:26.031Z,5.27
2023-04-29T14:06:54.550Z,6.10
2023-04-29T14:09:23.339Z,6.30
2023-04-29T14:11:53.002Z,6.60
2023-04-29T14:14:21.206Z,4.77
2023-04-29T14:16:49.489Z,5.30
2023-04-29T14:19:22.762Z,8.97
2023-04-29T14:21:51.019Z,6.23
2023-04-29T14:24:19.221Z,8.10
2023-04-29T14:26:47.439Z,8.00
2023-04-29T14:29:16.941Z,4.80
2023-04-29T14:31:45.233Z,6.53
2023-04-29T14:34:13.523Z,6.40
2023-04-29T14:36:41.739Z,6.07
2023-04-29T14:39:09.968Z,7.70
2023-04-29T14:41:38.179Z,7.03
2023-04-29T14:44:06.357Z,7.47
2023-04-29T14:46:35.881Z,6.50
2023-04-29T14:49:04.312Z,6.03
2023-04-29T14:51:32.494Z,7.03
2023-04-29T14:54:00.665Z,5.40
2023-04-29T14:56:28.949Z,6.50
2023-04-29T14:58:57.171Z,4.90
2023-04-29T15:01:26.159Z,6.20
2023-04-29T15:03:57.990Z,5.50
2023-04-29T15:06:27.747Z,5.80
2023-04-29T15:08:56.291Z,4.70
2023-04-29T15:11:26.205Z,6.00
2023-04-29T15:13:54.375Z,7.57
2023-04-29T15:16:22.667Z,7.43
2023-04-29T15:18:50.935Z,6.20
2023-04-29T15:21:21.186Z,5.70
2023-04-29T15:23:49.356Z,6.40
2023-04-29T15:26:17.669Z,6.60
2023-04-29T15:28:48.833Z,4.73
2023-04-29T15:31:17.120Z,6.07
2023-04-29T15:33:45.308Z,6.97
2023-04-29T15:36:13.532Z,6.97
2023-04-29T15:38:44.078Z,6.37
2023-04-29T15:41:12.177Z,6.27
2023-04-29T15:43:40.388Z,6.63
2023-04-29T15:46:08.714Z,7.93
2023-04-29T15:48:37.001Z,5.53
2023-04-29T15:51:05.472Z,6.83
2023-04-29T15:53:33.646Z,8.77
2023-04-29T15:56:03.257Z,8.10
2023-04-29T15:58:33.708Z,6.83
2023-04-29T16:01:01.884Z,5.67
2023-04-29T16:03:30.129Z,7.93
2023-04-29T16:05:58.491Z,5.47
2023-04-29T16:08:26.963Z,4.60
2023-04-29T16:10:55.211Z,6.00
2023-04-29T16:13:24.876Z,5.43
2023-04-29T16:15:53.056Z,5.70
2023-04-29T16:18:21.288Z,6.40
2023-04-29T16:20:49.503Z,7.07
2023-04-29T16:23:17.660Z,4.70
2023-04-29T16:25:45.882Z,6.23
2023-04-29T16:28:16.352Z,5.00
2023-04-29T16:30:48.417Z,5.30
2023-04-29T16:33:16.751Z,6.23
2023-04-29T16:35:44.963Z,6.23
2023-04-29T16:38:13.501Z,7.90
2023-04-29T16:40:41.673Z,7.30
2023-04-29T16:43:09.877Z,5.40
2023-04-29T16:45:38.149Z,5.50
2023-04-29T16:48:08.323Z,5.23
2023-04-29T16:50:37.817Z,5.50
2023-04-29T16:53:06.215Z,4.97
2023-04-29T16:55:34.434Z,4.00
2023-04-29T16:58:05.346Z,4.77
2023-04-29T17:00:33.664Z,3.97
2023-04-29T17:03:01.933Z,5.17
2023-04-29T17:05:31.500Z,4.23
2023-04-29T17:07:59.877Z,5.53
2023-04-29T17:10:30.410Z,5.67
2023-04-29T17:12:58.676Z,5.87
2023-04-29T17:15:26.947Z,4.40
2023-04-29T17:17:55.849Z,4.57
2023-04-29T17:20:27.066Z,3.23
2023-04-29T17:22:56.590Z,3.33
2023-04-29T17:25:28.099Z,3.70
2023-04-29T17:27:56.434Z,3.73
2023-04-29T17:30:24.911Z,4.73
2023-04-29T17:32:53.184Z,5.27
2023-04-29T17:35:21.707Z,4.77
2023-04-29T17:37:53.546Z,3.17
2023-04-29T17:40:48.057Z,4.37
2023-04-29T17:43:17.338Z,3.47
2023-04-29T17:45:48.886Z,4.57
2023-04-29T17:48:19.515Z,4.57
2023-04-29T17:50:51.137Z,5.67
2023-04-29T17:53:19.719Z,5.80
2023-04-29T17:55:49.964Z,5.63
2023-04-29T17:58:18.719Z,5.00
2023-04-29T18:00:50.738Z,3.60
2023-04-29T18:03:21.251Z,4.50
2023-04-29T18:05:50.020Z,5.93
2023-04-29T18:08:18.201Z,4.83
2023-04-29T18:10:46.602Z,5.27
2023-04-29T18:13:16.268Z,4.30
2023-04-29T18:15:44.598Z,7.00
2023-04-29T18:18:12.868Z,4.57
2023-04-29T18:20:43.881Z,4.43
2023-04-29T18:23:12.270Z,4.73
2023-04-29T18:25:41.051Z,4.40
2023-04-29T18:28:24.186Z,4.10
2023-04-29T18:30:57.004Z,4.40
2023-04-29T18:33:26.536Z,6.03
2023-04-29T18:35:55.480Z,5.10
2023-04-29T18:38:23.850Z,4.23
2023-04-29T18:40:52.056Z,4.20
2023-04-29T18:43:24.523Z,5.53
2023-04-29T18:45:52.890Z,4.60
2023-04-29T18:48:22.473Z,4.90
2023-04-29T18:50:52.488Z,3.90
2023-04-29T18:53:23.184Z,3.53
2023-04-29T18:55:51.380Z,5.20
2023-04-29T18:58:19.615Z,5.57
2023-04-29T19:00:47.959Z,4.87
2023-04-29T19:03:16.434Z,5.00
2023-04-29T19:05:47.113Z,3.90
2023-04-29T19:08:17.712Z,6.23
2023-04-29T19:10:46.448Z,5.80
2023-04-29T19:13:14.615Z,3.87
2023-04-29T19:15:42.895Z,4.10
2023-04-29T19:18:11.128Z,4.50
2023-04-29T19:20:39.400Z,5.27
2023-04-29T19:23:09.004Z,3.87
2023-04-29T19:25:39.485Z,4.27
2023-04-29T19:28:07.747Z,5.17
2023-04-29T19:30:36.081Z,4.90
2023-04-29T19:33:04.367Z,6.20
2023-04-29T19:35:32.622Z,6.53
2023-04-29T19:38:00.826Z,4.80
2023-04-29T19:40:30.374Z,6.70
2023-04-29T19:42:58.516Z,5.80
2023-04-29T19:45:26.684Z,6.20
2023-04-29T19:47:59.627Z,4.30
2023-04-29T19:50:28.025Z,4.97
2023-04-29T19:52:56.216Z,4.57
2023-04-29T19:55:24.733Z,4.50
2023-04-29T19:57:54.749Z,3.60
2023-04-29T20:00:23.139Z,3.87
2023-04-29T20:02:52.436Z,5.23
2023-04-29T20:05:20.825Z,5.03
2023-04-29T20:07:49.892Z,3.80
2023-04-29T20:10:18.105Z,3.70
2023-04-29T20:12:46.738Z,5.20
2023-04-29T20:15:16.511Z,6.03
2023-04-29T20:17:44.867Z,3.83
2023-04-29T20:20:13.324Z,5.40
2023-04-29T20:22:41.493Z,4.43
2023-04-29T20:25:10.219Z,6.53
2023-04-29T20:27:38.465Z,5.90
2023-04-29T20:30:08.775Z,5.50
2023-04-29T20:32:38.576Z,6.20
2023-04-29T20:35:08.334Z,5.77
2023-04-29T20:37:37.260Z,5.70
2023-04-29T20:40:09.960Z,8.70
2023-04-29T20:42:38.144Z,4.17
2023-04-29T20:45:07.620Z,4.40
2023-04-29T20:47:36.244Z,4.10
2023-04-29T20:50:06.954Z,4.87
2023-04-29T20:52:36.646Z,6.47
2023-04-29T20:55:05.320Z,3.80
2023-04-29T20:57:33.534Z,4.53
2023-04-29T21:00:01.951Z,5.43
2023-04-29T21:02:30.228Z,4.37
2023-04-29T21:04:58.471Z,4.77
2023-04-29T21:07:28.098Z,3.67
2023-04-29T21:09:56.458Z,4.27
2023-04-29T21:12:25.949Z,5.53
2023-04-29T21:14:54.197Z,6.03
2023-04-29T21:17:24.452Z,4.90
2023-04-29T21:19:52.713Z,4.43
2023-04-29T21:22:21.112Z,4.53
2023-04-29T21:24:50.670Z,4.50
2023-04-29T21:27:18.805Z,6.50
2023-04-29T21:29:46.940Z,6.53
2023-04-29T21:32:21.537Z,5.57
2023-04-29T21:34:50.053Z,6.90
2023-04-29T21:37:18.325Z,7.70
2023-04-29T21:39:46.616Z,8.13
2023-04-29T21:42:22.503Z,6.20
2023-04-29T21:44:50.700Z,4.73
2023-04-29T21:47:18.942Z,7.37
2023-04-29T21:49:47.160Z,6.60
2023-04-29T21:52:15.397Z,8.10
2023-04-29T21:54:43.632Z,6.00
2023-04-29T21:57:14.581Z,6.47
2023-04-29T21:59:44.182Z,5.50
2023-04-29T22:02:22.293Z,5.80
2023-04-29T22:04:53.593Z,6.40
2023-04-29T22:07:23.636Z,6.07
2023-04-29T22:09:52.184Z,5.83
2023-04-29T22:12:21.297Z,7.33
2023-04-29T22:14:51.099Z,4.67
2023-04-29T22:17:19.429Z,5.17
2023-04-29T22:19:48.252Z,6.10
2023-04-29T22:22:18.579Z,4.33
2023-04-29T22:24:46.830Z,3.87
2023-04-29T22:27:17.335Z,3.93
2023-04-29T22:29:46.021Z,6.17
2023-04-29T22:32:18.249Z,6.43
2023-04-29T22:34:46.401Z,6.20
2023-04-29T22:37:14.610Z,5.20
2023-04-29T22:39:45.666Z,7.47
2023-04-29T22:42:13.884Z,7.70
2023-04-29T22:44:42.167Z,6.20
2023-04-29T22:47:10.323Z,6.27
2023-04-29T22:49:40.877Z,5.50
2023-04-29T22:52:09.336Z,4.17
2023-04-29T22:54:37.490Z,6.27
2023-04-29T22:57:07.527Z,5.80
2023-04-29T22:59:35.828Z,10.37
2023-04-29T23:02:06.107Z,8.97
2023-04-29T23:04:34.563Z,9.57
2023-04-29T23:07:04.223Z,6.77
2023-04-29T23:09:32.347Z,7.30
2023-04-29T23:12:01.163Z,7.73
2023-04-29T23:14:32.416Z,6.50
2023-04-29T23:17:00.584Z,9.37
2023-04-29T23:19:42.413Z,9.37
2023-04-29T23:22:11.967Z,10.10
2023-04-29T23:24:40.315Z,8.17
2023-04-29T23:27:12.217Z,10.57
2023-04-29T23:29:41.650Z,9.33
2023-04-29T23:32:09.919Z,11.90
2023-04-29T23:34:38.212Z,10.47
2023-04-29T23:37:06.399Z,10.50
2023-04-29T23:39:36.160Z,7.93
2023-04-29T23:42:04.342Z,7.40
2023-04-29T23:44:35.628Z,6.90
2023-04-29T23:47:03.992Z,8.70
2023-04-29T23:49:32.838Z,7.53
2023-04-29T23:52:01.387Z,7.30
2023-04-29T23:54:29.581Z,5.30
2023-04-29T23:57:00.422Z,6.90
2023-04-29T23:59:28.689Z,9.00
